Time;durP1;ratioP1;P1;durP2;ratioP2;P2;SDS_P1;SDS_P2;PMS_P1;PMS_P2;Temp;Humidity;BMP_temperature;BMP_pressure;BME280_temperature;BME280_humidity;BME280_pressure;Samples;Min_cycle;Max_cycle;Signal;HPM_P1;HPM_P2
2022/06/26 00:02:03;;;;;;;3.63;2.00;;;;;;;17.01;79.70;97050.59;5028278;28;20071;-66
2022/06/26 00:04:30;;;;;;;4.63;2.13;;;;;;;16.97;79.94;97049.56;5028955;28;20076;-66
2022/06/26 00:06:59;;;;;;;3.13;2.00;;;;;;;16.95;79.80;97049.03;5028347;28;20042;-66
2022/06/26 00:09:28;;;;;;;3.85;2.13;;;;;;;16.99;79.93;97052.78;5029087;28;20045;-66
2022/06/26 00:11:55;;;;;;;5.35;1.90;;;;;;;17.14;78.64;97061.88;5029259;28;20060;-66
2022/06/26 00:14:21;;;;;;;4.78;1.90;;;;;;;17.23;78.04;97084.66;5028964;28;20057;-66
2022/06/26 00:16:48;;;;;;;3.35;1.85;;;;;;;17.35;77.28;97086.06;5032835;28;20045;-66
2022/06/26 00:19:15;;;;;;;2.90;1.35;;;;;;;17.63;74.86;97097.03;5032030;28;20532;-66
2022/06/26 00:21:42;;;;;;;3.08;1.60;;;;;;;17.88;72.86;97097.63;5033157;28;20045;-66
2022/06/26 00:24:09;;;;;;;5.10;1.90;;;;;;;17.91;73.90;97092.34;5030629;28;20481;-66
2022/06/26 00:26:35;;;;;;;4.05;1.70;;;;;;;17.95;73.07;97108.97;5027607;28;20064;-66
2022/06/26 00:29:02;;;;;;;3.65;1.70;;;;;;;18.15;72.45;97117.88;5028554;28;20042;-66
2022/06/26 00:31:29;;;;;;;2.85;1.52;;;;;;;18.07;72.43;97114.72;5027759;28;20041;-66
2022/06/26 00:33:55;;;;;;;1.92;1.27;;;;;;;18.16;71.64;97119.50;5028648;28;20041;-66
2022/06/26 00:36:22;;;;;;;3.17;1.80;;;;;;;18.09;72.57;97127.34;5028220;28;20045;-66
2022/06/26 00:38:49;;;;;;;2.95;1.70;;;;;;;17.96;72.80;97135.25;5028459;28;20068;-66
2022/06/26 00:41:15;;;;;;;3.13;1.80;;;;;;;18.05;72.13;97133.41;5027175;28;20425;-66
2022/06/26 00:43:42;;;;;;;4.70;1.73;;;;;;;18.09;72.31;97143.78;5027816;28;20045;-65
2022/06/26 00:46:09;;;;;;;2.67;1.70;;;;;;;18.05;72.65;97138.88;5028036;28;20402;-66
2022/06/26 00:48:35;;;;;;;2.83;1.65;;;;;;;18.02;73.43;97142.22;5028419;28;20052;-66
2022/06/26 00:51:03;;;;;;;3.25;1.98;;;;;;;17.93;73.83;97138.59;5028121;28;20053;-66
2022/06/26 00:53:30;;;;;;;3.42;2.05;;;;;;;17.89;74.32;97143.06;5027922;28;20119;-66
2022/06/26 00:55:57;;;;;;;4.30;1.98;;;;;;;17.94;74.24;97132.00;5027655;28;20037;-66
2022/06/26 00:58:24;;;;;;;2.88;1.90;;;;;;;17.96;74.63;97140.72;5028307;28;20048;-66
2022/06/26 01:00:50;;;;;;;3.08;1.80;;;;;;;17.94;74.66;97132.00;5026898;28;20053;-66
2022/06/26 01:03:17;;;;;;;6.32;1.90;;;;;;;18.01;74.33;97132.41;5028012;28;20049;-66
2022/06/26 01:05:45;;;;;;;2.70;1.52;;;;;;;18.09;75.69;97130.09;5027778;28;20053;-66
2022/06/26 01:08:12;;;;;;;2.83;1.63;;;;;;;17.90;76.94;97128.25;5028051;28;20041;-66
2022/06/26 01:10:38;;;;;;;3.47;2.00;;;;;;;17.85;76.42;97123.69;5024500;28;20041;-66
2022/06/26 01:13:06;;;;;;;3.00;1.88;;;;;;;17.95;74.69;97119.94;5026083;28;20053;-66
2022/06/26 01:15:34;;;;;;;3.42;1.98;;;;;;;17.82;76.87;97110.59;5026825;28;20040;-66
2022/06/26 01:18:01;;;;;;;5.40;2.45;;;;;;;17.85;77.00;97095.50;5026231;28;20060;-66
2022/06/26 01:20:28;;;;;;;2.90;1.60;;;;;;;18.00;75.71;97094.34;5010847;28;20048;-66
2022/06/26 01:23:04;;;;;;;2.92;1.63;;;;;;;18.17;74.26;97096.47;5014385;28;20462;-66
2022/06/26 01:25:41;;;;;;;3.28;1.80;;;;;;;18.27;73.40;97111.84;5023272;28;20426;-66
2022/06/26 01:28:08;;;;;;;3.13;1.67;;;;;;;18.33;75.23;97136.09;5027484;28;20037;-66
2022/06/26 01:30:35;;;;;;;4.53;1.60;;;;;;;18.29;78.18;97118.69;5027098;28;20049;-66
2022/06/26 01:33:02;;;;;;;3.85;1.63;;;;;;;18.26;76.25;97116.53;5025786;28;20148;-66
2022/06/26 01:35:29;;;;;;;1.73;1.15;;;;;;;18.27;76.61;97118.16;5025689;28;20515;-66
2022/06/26 01:38:09;;;;;;;2.63;1.30;;;;;;;18.14;76.35;97136.25;5026376;28;20049;-66
2022/06/26 01:40:35;;;;;;;1.75;1.00;;;;;;;18.04;75.26;97130.97;5025020;28;20048;-66
2022/06/26 01:43:02;;;;;;;3.97;1.20;;;;;;;18.01;77.03;97140.63;5027036;28;20041;-66
2022/06/26 01:45:29;;;;;;;1.77;1.10;;;;;;;17.83;77.71;97141.56;5025942;28;20512;-66
2022/06/26 01:47:57;;;;;;;1.98;1.20;;;;;;;17.82;76.73;97140.72;5025169;28;20038;-66
2022/06/26 01:50:23;;;;;;;1.65;0.90;;;;;;;17.64;75.74;97131.50;5025949;28;20532;-66
2022/06/26 01:52:50;;;;;;;1.92;1.10;;;;;;;17.70;75.09;97124.81;5026148;28;20136;-66
2022/06/26 01:55:17;;;;;;;3.42;1.10;;;;;;;17.66;75.08;97119.13;5025756;28;20053;-66
2022/06/26 01:57:45;;;;;;;1.10;0.80;;;;;;;17.68;72.74;97119.66;5025988;28;20046;-66
2022/06/26 02:00:18;;;;;;;1.88;0.80;;;;;;;17.68;72.91;97116.91;5025076;28;20045;-66
2022/06/26 02:02:45;;;;;;;1.70;1.10;;;;;;;17.52;75.26;97118.31;5025827;28;20049;-66
2022/06/26 02:05:12;;;;;;;1.65;1.00;;;;;;;17.44;75.64;97121.78;5025642;28;20312;-66
2022/06/26 02:07:38;;;;;;;1.02;0.75;;;;;;;17.45;74.28;97123.38;5025797;28;20143;-66
2022/06/26 02:15:37;;;;;;;1.80;0.95;;;;;;;17.53;72.11;97118.03;5025693;28;20357;-66
2022/06/26 02:18:04;;;;;;;2.60;0.77;;;;;;;17.40;73.39;97122.38;5025417;28;20045;-66
2022/06/26 02:20:30;;;;;;;1.67;0.80;;;;;;;17.35;74.07;97125.22;5025226;28;20144;-66
2022/06/26 02:22:57;;;;;;;1.48;0.80;;;;;;;17.26;73.50;97132.50;5025779;28;20509;-66
2022/06/26 02:25:24;;;;;;;2.40;0.95;;;;;;;17.19;74.48;97134.81;5027027;28;20038;-66
2022/06/26 02:27:53;;;;;;;2.67;0.80;;;;;;;17.10;74.86;97135.50;5026805;28;20033;-66
2022/06/26 02:30:21;;;;;;;0.98;0.60;;;;;;;17.14;74.49;97133.78;5026767;28;20049;-66
2022/06/26 02:32:48;;;;;;;1.30;0.80;;;;;;;17.17;74.29;97132.38;5025482;28;20410;-66
2022/06/26 02:35:15;;;;;;;3.05;0.90;;;;;;;16.78;78.14;97139.84;5025690;28;20079;-66
2022/06/26 02:37:42;;;;;;;2.28;1.02;;;;;;;16.45;78.44;97140.63;5027090;28;20071;-66
2022/06/26 02:40:09;;;;;;;1.15;0.80;;;;;;;16.51;77.89;97141.34;5025080;28;20049;-67
2022/06/26 02:42:36;;;;;;;1.10;0.73;;;;;;;16.51;78.66;97138.59;5024784;28;20383;-66
2022/06/26 02:45:04;;;;;;;1.20;0.77;;;;;;;16.39;79.86;97144.53;5026342;28;20050;-65
2022/06/26 02:47:31;;;;;;;1.30;0.70;;;;;;;16.33;79.95;97145.72;5009004;28;20071;-66
2022/06/26 02:49:58;;;;;;;1.48;0.80;;;;;;;16.33;79.46;97149.25;5022637;28;20037;-66
2022/06/26 02:52:25;;;;;;;2.78;0.95;;;;;;;16.43;79.72;97142.84;5035375;28;20099;-66
2022/06/26 02:54:52;;;;;;;1.33;0.80;;;;;;;16.40;79.64;97148.09;5039014;28;20042;-66
2022/06/26 02:57:18;;;;;;;1.58;1.00;;;;;;;16.27;80.32;97150.44;5048298;28;20637;-66
2022/06/26 02:59:46;;;;;;;1.02;0.70;;;;;;;16.10;81.77;97140.00;5040767;28;20516;-66
2022/06/26 03:02:13;;;;;;;1.58;0.80;;;;;;;15.88;82.71;97140.56;5035467;28;20374;-66
2022/06/26 03:04:57;;;;;;;1.55;0.90;;;;;;;15.92;82.42;97142.41;5014830;28;20131;-66
2022/06/26 03:07:24;;;;;;;1.90;0.90;;;;;;;15.73;83.07;97142.34;5028599;28;20088;-66
2022/06/26 03:09:52;;;;;;;2.22;0.80;;;;;;;15.48;85.44;97145.09;5017770;28;20133;-66
2022/06/26 03:12:20;;;;;;;1.85;0.90;;;;;;;15.52;84.94;97137.13;5008333;28;20426;-66
2022/06/26 03:14:46;;;;;;;1.80;0.80;;;;;;;15.64;84.10;97138.66;5008698;28;20137;-66
2022/06/26 03:17:13;;;;;;;2.05;0.90;;;;;;;15.78;84.02;97123.22;5008536;28;20041;-66
2022/06/26 03:19:40;;;;;;;2.15;0.93;;;;;;;15.62;84.41;97114.38;5009020;28;20116;-66
2022/06/26 03:22:06;;;;;;;1.45;0.90;;;;;;;15.63;84.93;97105.09;5010123;28;20053;-66
2022/06/26 03:24:33;;;;;;;1.25;0.80;;;;;;;15.78;83.68;97106.84;5028842;28;20049;-67
2022/06/26 03:27:00;;;;;;;2.00;0.90;;;;;;;15.79;83.47;97121.28;5027694;28;20037;-66
2022/06/26 03:29:27;;;;;;;1.55;1.10;;;;;;;15.61;84.61;97142.78;5038053;28;20049;-67
2022/06/26 03:31:55;;;;;;;2.63;1.02;;;;;;;15.33;86.24;97140.63;5026406;28;20049;-66
2022/06/26 03:34:22;;;;;;;4.35;1.00;;;;;;;15.26;86.70;97150.25;5026068;28;20049;-67
2022/06/26 03:36:48;;;;;;;1.92;0.90;;;;;;;15.31;86.56;97151.03;5033160;28;20052;-67
2022/06/26 03:39:16;;;;;;;1.27;0.80;;;;;;;15.43;86.12;97157.97;5033295;28;20610;-66
2022/06/26 03:41:57;;;;;;;7.60;1.20;;;;;;;15.38;86.66;97160.75;5046135;28;20041;-66
2022/06/26 03:44:29;;;;;;;1.67;0.88;;;;;;;15.28;86.66;97157.03;5009782;28;20136;-66
2022/06/26 03:46:56;;;;;;;1.73;0.95;;;;;;;15.45;85.70;97162.03;5009227;28;20460;-66
2022/06/26 03:49:24;;;;;;;1.50;0.95;;;;;;;15.52;85.78;97163.63;5007975;28;20099;-66
2022/06/26 03:51:51;;;;;;;1.77;0.80;;;;;;;15.39;86.07;97160.47;5006816;28;20057;-66
2022/06/26 03:54:19;;;;;;;1.85;0.90;;;;;;;15.47;86.00;97159.84;5026265;28;20045;-66
2022/06/26 03:56:47;;;;;;;1.77;1.10;;;;;;;15.56;85.43;97157.28;5028636;28;20097;-66
2022/06/26 03:59:15;;;;;;;1.63;0.90;;;;;;;15.59;85.20;97151.25;5029193;28;20056;-66
2022/06/26 04:01:42;;;;;;;1.73;1.00;;;;;;;15.69;84.73;97161.25;5027870;28;20052;-66
2022/06/26 04:04:08;;;;;;;1.92;1.08;;;;;;;15.90;84.05;97152.00;5027246;28;20091;-66
2022/06/26 04:06:35;;;;;;;2.33;1.55;;;;;;;15.89;84.24;97164.84;5027735;28;20041;-66
2022/06/26 04:09:24;;;;;;;1.73;0.90;;;;;;;15.92;84.27;97169.69;5028877;28;20448;-66
2022/06/26 04:11:53;;;;;;;1.58;1.00;;;;;;;16.01;83.85;97169.91;5027499;28;20128;-66
2022/06/26 04:14:20;;;;;;;1.40;0.90;;;;;;;16.06;83.44;97161.66;5028500;28;20444;-66
2022/06/26 04:16:46;;;;;;;2.00;1.17;;;;;;;16.07;83.34;97167.94;5027282;28;20061;-66
2022/06/26 04:19:13;;;;;;;2.42;1.15;;;;;;;16.15;83.13;97164.53;5027676;28;20352;-66
2022/06/26 04:21:41;;;;;;;1.90;1.08;;;;;;;16.19;82.72;97160.13;5026475;28;20045;-66
2022/06/26 04:24:08;;;;;;;2.03;1.02;;;;;;;16.12;83.52;97156.94;5027291;28;20101;-66
2022/06/26 04:26:35;;;;;;;2.03;1.10;;;;;;;15.90;85.72;97152.81;5028001;28;20041;-66
2022/06/26 04:29:01;;;;;;;2.38;1.23;;;;;;;16.03;85.64;97150.50;5027545;28;20034;-66
2022/06/26 04:31:33;;;;;;;2.42;1.27;;;;;;;16.01;83.99;97145.34;5026979;28;20513;-66
2022/06/26 04:33:59;;;;;;;3.80;1.17;;;;;;;15.96;84.52;97138.00;5028369;28;20095;-66
2022/06/26 04:36:26;;;;;;;4.75;1.20;;;;;;;15.68;86.54;97137.78;5028490;28;20041;-66
2022/06/26 04:38:53;;;;;;;1.90;0.98;;;;;;;15.56;88.02;97135.44;5027008;28;20480;-67
2022/06/26 04:41:31;;;;;;;2.42;1.20;;;;;;;15.46;87.80;97136.41;5026313;28;20144;-66
2022/06/26 04:43:58;;;;;;;2.08;1.00;;;;;;;15.37;88.83;97140.03;5026755;28;20497;-67
2022/06/26 04:46:25;;;;;;;4.13;1.48;;;;;;;15.13;90.31;97149.81;5026706;28;20044;-66
2022/06/26 04:48:55;;;;;;;4.18;1.40;;;;;;;14.96;91.46;97166.59;5026981;28;20041;-66
2022/06/26 04:51:22;;;;;;;1.80;1.10;;;;;;;14.98;91.35;97163.59;5026122;28;20084;-66
2022/06/26 04:53:49;;;;;;;4.82;1.40;;;;;;;15.12;90.44;97156.38;5026329;28;20107;-66
2022/06/26 04:56:15;;;;;;;3.45;1.40;;;;;;;15.28;89.41;97150.75;5025969;28;20492;-66
2022/06/26 04:58:46;;;;;;;3.30;1.35;;;;;;;15.34;88.84;97153.16;5026885;28;20037;-66
2022/06/26 05:01:14;;;;;;;2.00;1.20;;;;;;;15.45;88.63;97159.31;5026171;28;20367;-66
2022/06/26 05:03:59;;;;;;;1.60;1.08;;;;;;;15.48;88.81;97168.81;5027827;28;20538;-66
2022/06/26 05:06:36;;;;;;;1.88;1.08;;;;;;;15.57;88.54;97167.13;5026361;28;20069;-66
2022/06/26 05:09:13;;;;;;;2.95;1.20;;;;;;;15.58;88.29;97171.47;5026766;28;20486;-66
2022/06/26 05:11:41;;;;;;;2.63;1.10;;;;;;;15.67;88.08;97176.28;5026266;28;20519;-66
2022/06/26 05:14:08;;;;;;;1.70;1.20;;;;;;;15.74;87.65;97180.28;5023986;28;20048;-66
2022/06/26 05:16:52;;;;;;;1.73;1.20;;;;;;;15.69;88.03;97183.06;5026327;28;20044;-66
2022/06/26 05:19:33;;;;;;;2.58;1.25;;;;;;;15.59;88.47;97189.47;5026258;28;20095;-66
2022/06/26 05:22:04;;;;;;;2.65;1.50;;;;;;;15.40;90.24;97191.31;5008296;28;20132;-66
2022/06/26 05:24:35;;;;;;;2.55;1.50;;;;;;;15.43;91.05;97201.63;5006635;28;20073;-66
2022/06/26 05:27:02;;;;;;;2.35;1.30;;;;;;;15.53;89.97;97208.91;4989841;28;20088;-66
2022/06/26 05:29:39;;;;;;;2.38;1.30;;;;;;;15.66;89.03;97197.28;5007812;28;20528;-66
2022/06/26 05:32:06;;;;;;;2.83;1.60;;;;;;;15.65;89.64;97205.78;5026694;28;20052;-66
2022/06/26 05:34:32;;;;;;;2.25;1.40;;;;;;;15.68;89.69;97199.75;5040052;28;20056;-67
2022/06/26 05:36:59;;;;;;;4.70;2.05;;;;;;;15.83;88.80;97201.47;5025138;28;20132;-66
2022/06/26 05:39:26;;;;;;;3.28;1.58;;;;;;;15.98;88.77;97201.34;5021912;28;20057;-66
2022/06/26 05:41:52;;;;;;;3.78;1.58;;;;;;;16.19;88.14;97203.81;5036946;28;20079;-66
2022/06/26 05:44:26;;;;;;;3.88;1.60;;;;;;;16.34;87.39;97199.25;5043796;28;20076;-66
2022/06/26 05:46:53;;;;;;;4.05;1.70;;;;;;;16.42;86.09;97203.25;5025886;28;20038;-66
2022/06/26 05:49:39;;;;;;;3.88;1.48;;;;;;;16.44;86.16;97210.03;5034453;28;20048;-66
2022/06/26 05:52:11;;;;;;;4.03;1.90;;;;;;;16.47;86.20;97211.38;5013069;28;20045;-66
2022/06/26 05:54:56;;;;;;;2.92;1.50;;;;;;;16.55;85.44;97207.16;5022083;28;20064;-66
2022/06/26 05:57:41;;;;;;;3.20;1.40;;;;;;;16.77;84.08;97217.53;5038161;28;20056;-66
2022/06/26 06:00:26;;;;;;;2.22;1.60;;;;;;;16.88;83.80;97202.56;5013780;28;20280;-66
2022/06/26 06:02:55;;;;;;;2.70;1.45;;;;;;;17.04;83.38;97199.59;5043224;28;20052;-66
2022/06/26 06:05:22;;;;;;;3.30;1.67;;;;;;;17.21;82.62;97193.59;5029799;28;20049;-66
2022/06/26 06:07:50;;;;;;;2.60;1.60;;;;;;;17.38;82.32;97209.44;5032922;28;20057;-66
2022/06/26 06:10:18;;;;;;;4.00;1.90;;;;;;;17.54;81.79;97199.03;5033301;28;20560;-66
2022/06/26 06:12:46;;;;;;;3.35;1.80;;;;;;;17.73;82.06;97200.06;5007908;28;20540;-66
2022/06/26 06:15:12;;;;;;;6.70;1.92;;;;;;;17.87;81.38;97195.41;5007522;28;20049;-66
2022/06/26 06:17:44;;;;;;;3.13;1.48;;;;;;;18.03;79.98;97192.34;5005781;28;20066;-66
2022/06/26 06:20:17;;;;;;;4.30;1.55;;;;;;;18.20;79.18;97197.22;5005848;28;20073;-66
2022/06/26 06:22:49;;;;;;;3.15;1.35;;;;;;;18.31;78.39;97209.59;5026911;28;20041;-66
2022/06/26 06:25:16;;;;;;;2.38;1.45;;;;;;;18.42;77.81;97203.88;5031537;28;20107;-66
2022/06/26 06:27:44;;;;;;;3.10;1.65;;;;;;;18.62;77.52;97210.88;5007390;28;20042;-66
2022/06/26 06:30:16;;;;;;;2.00;1.30;;;;;;;18.79;76.37;97212.94;5035433;28;20064;-66
2022/06/26 06:32:43;;;;;;;2.20;1.40;;;;;;;18.96;73.81;97222.44;5026982;28;20065;-66
2022/06/26 06:35:20;;;;;;;2.90;1.38;;;;;;;19.10;71.83;97214.97;5040357;28;20071;-66
2022/06/26 06:37:47;;;;;;;2.10;1.15;;;;;;;19.16;70.62;97217.63;5028435;28;20048;-66
2022/06/26 06:40:14;;;;;;;1.65;1.20;;;;;;;19.26;70.25;97213.78;5031160;28;20520;-66
2022/06/26 06:42:42;;;;;;;1.95;1.00;;;;;;;19.36;68.44;97222.56;5046932;28;20049;-66
2022/06/26 06:45:13;;;;;;;1.73;1.23;;;;;;;19.53;68.24;97221.03;5029838;28;20053;-66
2022/06/26 06:47:59;;;;;;;1.58;1.05;;;;;;;19.70;67.84;97225.00;5027720;28;20077;-66
2022/06/26 06:50:39;;;;;;;2.70;1.27;;;;;;;19.80;67.27;97230.25;5025173;28;20057;-66
2022/06/26 06:53:07;;;;;;;1.23;1.02;;;;;;;19.85;66.81;97229.28;5017983;28;20089;-66
2022/06/26 06:55:34;;;;;;;4.15;1.30;;;;;;;20.06;67.51;97234.25;5048343;28;20041;-66
2022/06/26 06:58:01;;;;;;;1.23;0.80;;;;;;;20.20;66.62;97240.41;5013211;28;20496;-66
2022/06/26 07:00:28;;;;;;;2.55;1.20;;;;;;;20.25;65.88;97236.72;5009124;28;20053;-66
2022/06/26 07:03:02;;;;;;;1.77;1.05;;;;;;;20.17;65.97;97240.25;5048159;28;20475;-66
2022/06/26 07:05:29;;;;;;;1.77;0.95;;;;;;;20.16;66.13;97250.44;5048293;28;20475;-67
2022/06/26 07:07:55;;;;;;;2.67;1.00;;;;;;;20.17;66.66;97246.56;5049108;28;20120;-66
2022/06/26 07:10:23;;;;;;;1.48;0.93;;;;;;;20.22;65.27;97248.34;5028459;28;20045;-66
2022/06/26 07:12:56;;;;;;;2.20;1.20;;;;;;;20.41;66.38;97253.56;5028373;28;20049;-66
2022/06/26 07:15:23;;;;;;;1.98;1.00;;;;;;;20.53;66.13;97244.72;5029722;28;20052;-66
2022/06/26 07:17:50;;;;;;;3.83;1.30;;;;;;;20.59;64.82;97256.34;5030036;28;20481;-66
2022/06/26 07:20:17;;;;;;;4.63;1.13;;;;;;;20.56;65.73;97246.03;5023102;28;20402;-66
2022/06/26 07:22:46;;;;;;;3.08;1.10;;;;;;;20.57;65.47;97248.47;5008366;28;20115;-66
2022/06/26 07:25:28;;;;;;;4.00;1.20;;;;;;;20.32;66.63;97250.81;5008672;28;20054;-66
2022/06/26 07:27:59;;;;;;;2.80;1.20;;;;;;;20.49;65.28;97257.50;5008054;28;20088;-66
2022/06/26 07:30:28;;;;;;;2.45;1.15;;;;;;;20.47;65.69;97251.50;5011720;28;20144;-66
2022/06/26 07:33:05;;;;;;;3.70;1.02;;;;;;;20.32;65.99;97247.25;5040881;28;20102;-66
2022/06/26 07:35:31;;;;;;;1.52;1.00;;;;;;;20.69;64.45;97244.25;5047081;28;20036;-66
2022/06/26 07:38:01;;;;;;;1.35;0.90;;;;;;;20.84;63.32;97251.22;5017132;28;20118;-66
2022/06/26 07:40:28;;;;;;;1.70;1.10;;;;;;;20.95;62.93;97249.00;5025765;28;20157;-66
2022/06/26 07:42:59;;;;;;;1.70;0.90;;;;;;;21.15;62.98;97244.75;5026083;28;20128;-66
2022/06/26 07:45:31;;;;;;;4.50;1.10;;;;;;;21.12;61.84;97246.22;5036555;28;20509;-66
2022/06/26 07:48:02;;;;;;;1.60;1.00;;;;;;;21.10;62.08;97236.69;5028294;28;20037;-66
2022/06/26 07:50:30;;;;;;;2.92;0.98;;;;;;;21.27;60.88;97244.91;5022218;28;20048;-66
2022/06/26 07:52:57;;;;;;;2.30;0.90;;;;;;;21.20;60.90;97241.03;5016721;28;20049;-65
2022/06/26 07:55:24;;;;;;;0.88;0.77;;;;;;;21.17;60.59;97248.00;5029440;28;20053;-65
2022/06/26 07:57:50;;;;;;;1.85;1.08;;;;;;;21.13;60.49;97249.81;5028712;28;20041;-66
2022/06/26 08:00:17;;;;;;;2.15;1.00;;;;;;;20.78;62.21;97247.81;5029224;28;20052;-66
2022/06/26 08:02:43;;;;;;;2.58;0.95;;;;;;;21.00;62.35;97241.38;5028806;28;20046;-66
2022/06/26 08:05:11;;;;;;;1.25;0.85;;;;;;;20.99;60.86;97238.94;5027698;28;20452;-66
2022/06/26 08:07:37;;;;;;;2.60;0.80;;;;;;;21.02;61.70;97247.38;5029336;28;20067;-66
2022/06/26 08:10:05;;;;;;;1.65;0.95;;;;;;;21.17;61.77;97237.00;5029670;28;20080;-66
2022/06/26 08:12:32;;;;;;;1.73;0.85;;;;;;;21.35;60.16;97235.03;5027843;28;20041;-66
2022/06/26 08:14:58;;;;;;;1.98;0.88;;;;;;;21.39;59.29;97240.69;5029816;28;20060;-66
2022/06/26 08:17:25;;;;;;;1.33;0.70;;;;;;;21.48;60.97;97235.19;5040514;28;20033;-66
2022/06/26 08:19:51;;;;;;;3.58;0.70;;;;;;;21.62;58.68;97235.78;5026237;28;20539;-66
2022/06/26 08:22:18;;;;;;;1.77;0.70;;;;;;;21.63;58.76;97242.91;5021620;28;20057;-65
2022/06/26 08:24:45;;;;;;;0.95;0.70;;;;;;;21.65;56.40;97250.84;5039355;28;20049;-66
2022/06/26 08:27:11;;;;;;;1.13;0.60;;;;;;;21.50;56.34;97255.75;5031620;28;20041;-66
2022/06/26 08:29:38;;;;;;;1.23;0.70;;;;;;;21.48;57.36;97246.19;5028602;28;20053;-66
2022/06/26 08:32:05;;;;;;;1.38;0.80;;;;;;;21.50;56.72;97249.44;5035005;28;20041;-66
2022/06/26 08:34:32;;;;;;;1.20;0.77;;;;;;;21.74;56.75;97243.38;5045177;28;20049;-66
2022/06/26 08:36:59;;;;;;;2.80;0.85;;;;;;;21.84;56.97;97239.47;5039139;28;20612;-66
2022/06/26 08:39:26;;;;;;;1.55;0.60;;;;;;;21.66;56.24;97252.47;5021803;28;20229;-66
2022/06/26 08:41:54;;;;;;;1.73;0.63;;;;;;;21.64;57.32;97250.03;5039469;28;20053;-66
2022/06/26 08:44:24;;;;;;;1.67;0.70;;;;;;;21.59;58.33;97257.69;5039673;28;20045;-66
2022/06/26 08:46:53;;;;;;;2.35;0.88;;;;;;;21.68;58.58;97250.19;5031449;28;20041;-66
2022/06/26 08:49:23;;;;;;;1.00;0.70;;;;;;;21.77;57.56;97255.69;5026910;28;20235;-66
2022/06/26 08:51:57;;;;;;;1.25;0.75;;;;;;;21.72;57.81;97262.19;5011622;28;20103;-66
2022/06/26 08:54:28;;;;;;;1.38;0.60;;;;;;;21.83;57.37;97257.16;5027276;28;20041;-66
2022/06/26 08:56:55;;;;;;;1.65;0.90;;;;;;;21.93;56.36;97256.78;5027762;28;20512;-66
2022/06/26 08:59:21;;;;;;;1.38;0.70;;;;;;;21.90;56.43;97257.47;5028343;28;20040;-66
2022/06/26 09:01:48;;;;;;;1.35;0.95;;;;;;;22.13;55.70;97248.94;5026912;28;20513;-66
2022/06/26 09:04:15;;;;;;;2.42;1.15;;;;;;;22.05;55.83;97253.34;5027937;28;20041;-66
2022/06/26 09:06:44;;;;;;;1.30;0.70;;;;;;;22.21;56.03;97261.88;5027293;28;20073;-66
2022/06/26 09:09:18;;;;;;;1.45;0.85;;;;;;;22.28;55.53;97268.78;5028585;28;20049;-66
2022/06/26 09:11:46;;;;;;;1.50;0.75;;;;;;;22.46;54.94;97275.84;5026016;28;20041;-66
2022/06/26 09:14:14;;;;;;;1.05;0.70;;;;;;;22.43;54.52;97259.97;5023480;28;20056;-67
2022/06/26 09:16:42;;;;;;;1.67;0.80;;;;;;;22.51;55.17;97266.56;5016954;28;20056;-66
2022/06/26 09:19:12;;;;;;;1.67;0.80;;;;;;;22.57;54.96;97281.84;5015820;28;20041;-66
2022/06/26 09:21:39;;;;;;;1.45;0.65;;;;;;;22.73;54.30;97272.94;5022299;28;20045;-66
2022/06/26 09:24:15;;;;;;;2.55;0.95;;;;;;;23.03;53.96;97275.66;5042848;28;20075;-66
2022/06/26 09:27:03;;;;;;;1.08;0.77;;;;;;;23.57;52.48;97270.50;5044955;28;20397;-66
2022/06/26 09:29:30;;;;;;;1.52;0.80;;;;;;;23.78;52.29;97270.47;5025202;28;20053;-66
2022/06/26 09:32:07;;;;;;;1.80;0.77;;;;;;;24.19;51.25;97267.88;5025289;28;20397;-66
2022/06/26 09:34:33;;;;;;;1.65;0.90;;;;;;;24.14;52.14;97266.16;5034881;28;20057;-66
2022/06/26 09:37:06;;;;;;;1.73;0.80;;;;;;;24.28;51.63;97268.56;5027520;28;20570;-67
2022/06/26 09:39:34;;;;;;;1.40;0.80;;;;;;;24.57;51.62;97257.59;5020156;28;20420;-66
2022/06/26 09:42:24;;;;;;;2.53;1.00;;;;;;;24.32;52.08;97254.84;5023085;28;20406;-66
2022/06/26 09:44:54;;;;;;;2.67;1.00;;;;;;;24.41;51.52;97255.56;5025319;28;20057;-66
2022/06/26 09:47:23;;;;;;;1.75;0.90;;;;;;;24.75;51.11;97260.94;5024639;28;20033;-66
2022/06/26 09:49:52;;;;;;;0.88;0.80;;;;;;;24.89;50.51;97268.91;5041354;28;20510;-66
2022/06/26 09:52:20;;;;;;;1.10;0.90;;;;;;;24.65;51.01;97269.69;5022782;28;20051;-66
2022/06/26 09:54:48;;;;;;;1.83;0.95;;;;;;;24.85;49.95;97270.75;5023277;28;20053;-66
2022/06/26 09:57:16;;;;;;;1.90;0.90;;;;;;;24.91;50.06;97265.78;5027073;28;20045;-66
2022/06/26 09:59:43;;;;;;;1.83;1.10;;;;;;;24.62;51.06;97268.44;5027614;28;20056;-66
2022/06/26 10:07:51;;;;;;;1.60;0.90;;;;;;;24.66;51.44;97263.81;5023742;28;20037;-66
2022/06/26 10:10:23;;;;;;;2.03;0.93;;;;;;;24.62;51.24;97264.88;5028667;28;20049;-65
2022/06/26 10:12:57;;;;;;;1.75;0.95;;;;;;;24.67;50.84;97264.63;5037659;28;20570;-66
2022/06/26 10:15:28;;;;;;;1.13;0.93;;;;;;;24.81;50.92;97261.50;5047547;28;20452;-66
2022/06/26 10:18:22;;;;;;;2.38;0.90;;;;;;;25.05;48.46;97266.19;5039048;28;20057;-66
2022/06/26 10:20:52;;;;;;;1.98;0.90;;;;;;;24.45;50.34;97255.66;5023413;28;20504;-66
2022/06/26 10:23:33;;;;;;;0.98;0.88;;;;;;;24.76;50.31;97257.00;5035240;28;20053;-66
2022/06/26 10:26:19;;;;;;;1.55;0.90;;;;;;;25.11;49.21;97260.41;5048224;28;20060;-66
2022/06/26 10:28:58;;;;;;;1.10;0.90;;;;;;;25.32;48.80;97257.44;5048036;28;20045;-66
2022/06/26 10:31:28;;;;;;;1.42;1.00;;;;;;;25.60;47.96;97256.63;5035577;28;20052;-66
2022/06/26 10:33:55;;;;;;;2.30;0.93;;;;;;;25.82;46.95;97263.56;5039686;28;20469;-66
2022/06/26 10:36:23;;;;;;;1.85;0.93;;;;;;;25.80;47.60;97267.88;5027960;28;20056;-66
2022/06/26 10:38:51;;;;;;;1.70;0.80;;;;;;;25.68;48.64;97264.00;5039792;28;20045;-66
2022/06/26 10:44:10;;;;;;;2.72;1.00;;;;;;;25.14;50.48;97254.16;5038499;28;20049;-66
2022/06/26 10:46:45;;;;;;;2.22;1.10;;;;;;;25.07;50.50;97261.09;5047612;28;20049;-66
2022/06/26 10:49:12;;;;;;;1.55;0.82;;;;;;;25.65;49.03;97255.59;5033004;28;20050;-66
2022/06/26 10:51:41;;;;;;;2.65;0.90;;;;;;;25.79;48.67;97255.16;5024572;28;20607;-66
2022/06/26 10:54:40;;;;;;;2.50;1.00;;;;;;;25.41;49.01;97251.75;5028992;28;20041;-66
2022/06/26 10:57:23;;;;;;;1.63;1.23;;;;;;;25.58;48.41;97254.22;5017456;28;20061;-66
2022/06/26 10:59:50;;;;;;;1.42;0.80;;;;;;;25.91;47.17;97259.81;5030182;28;20099;-66
2022/06/26 11:02:17;;;;;;;1.80;0.90;;;;;;;25.73;47.16;97253.81;5029642;28;20041;-67
2022/06/26 11:04:48;;;;;;;1.27;0.88;;;;;;;25.70;47.32;97247.00;5030327;28;20041;-66
2022/06/26 11:07:16;;;;;;;1.58;0.93;;;;;;;25.30;49.26;97257.81;5029867;28;20057;-66
2022/06/26 11:09:44;;;;;;;2.42;0.90;;;;;;;25.28;49.75;97251.78;5030834;28;20381;-66
2022/06/26 11:12:11;;;;;;;3.22;1.10;;;;;;;25.17;50.41;97251.50;5029892;28;20049;-66
2022/06/26 11:14:37;;;;;;;2.67;1.00;;;;;;;25.47;49.27;97247.56;5029292;28;20629;-66
2022/06/26 11:17:05;;;;;;;1.83;1.05;;;;;;;25.56;49.28;97241.84;5029575;28;20068;-66
2022/06/26 11:22:18;;;;;;;1.48;0.90;;;;;;;26.07;48.28;97238.44;5010286;28;20049;-66
2022/06/26 11:24:52;;;;;;;1.48;1.00;;;;;;;25.73;49.00;97232.44;5009912;28;20046;-66
2022/06/26 11:27:26;;;;;;;2.28;1.05;;;;;;;25.94;47.82;97236.94;5009557;28;20120;-66
2022/06/26 11:29:53;;;;;;;1.20;1.00;;;;;;;25.55;49.01;97238.28;5010463;28;20501;-66
2022/06/26 11:32:24;;;;;;;26.77;2.63;;;;;;;26.20;47.53;97235.56;5009553;28;20050;-66
2022/06/26 11:34:52;;;;;;;1.30;0.80;;;;;;;26.60;45.91;97240.09;5010195;28;20053;-66
2022/06/26 11:37:40;;;;;;;1.67;1.10;;;;;;;26.61;46.40;97238.91;5015468;28;20052;-66
2022/06/26 11:40:15;;;;;;;2.38;0.90;;;;;;;27.06;44.44;97244.28;5030274;28;20049;-66
2022/06/26 11:42:42;;;;;;;1.42;0.75;;;;;;;27.13;43.79;97238.06;5027482;28;20046;-66
2022/06/26 11:45:09;;;;;;;1.58;0.90;;;;;;;27.06;44.73;97241.50;5027227;28;20466;-66
2022/06/26 11:47:37;;;;;;;1.90;0.85;;;;;;;27.20;43.93;97252.06;5033293;28;20128;-66
2022/06/26 11:50:07;;;;;;;1.17;0.75;;;;;;;26.81;45.29;97236.19;5044013;28;20045;-66
2022/06/26 11:52:33;;;;;;;1.95;0.80;;;;;;;26.61;45.95;97243.69;5023417;28;20048;-66
2022/06/26 11:55:01;;;;;;;2.05;0.90;;;;;;;25.93;48.07;97238.88;5020933;28;20054;-66
2022/06/26 11:57:36;;;;;;;1.95;0.73;;;;;;;26.32;46.79;97232.69;5046954;28;20124;-66
2022/06/26 12:00:05;;;;;;;2.25;0.88;;;;;;;25.83;47.20;97219.97;5030536;28;20037;-66
2022/06/26 12:02:39;;;;;;;1.90;0.85;;;;;;;26.40;45.94;97230.91;5043596;28;20527;-66